createdAt,value
2023-01-29T00:01:22.783Z,98348.22
2023-01-29T00:03:51.378Z,98338.19
2023-01-29T00:06:18.121Z,98352.31
2023-01-29T00:08:44.542Z,98358.19
2023-01-29T00:11:10.935Z,98361.13
2023-01-29T00:13:37.299Z,98358.56
2023-01-29T00:16:04.171Z,98370.72
2023-01-29T00:18:31.367Z,98360.13
2023-01-29T00:20:57.901Z,98360.69
2023-01-29T00:23:24.909Z,98362.66
2023-01-29T00:25:51.274Z,98362.66
2023-01-29T00:28:17.710Z,98363.66
2023-01-29T00:30:44.055Z,98361.28
2023-01-29T00:33:11.847Z,98355.41
2023-01-29T00:35:40.197Z,98366.97
2023-01-29T00:38:06.781Z,98367.38
2023-01-29T00:40:55.746Z,98369.34
2023-01-29T00:43:40.492Z,98352.28
2023-01-29T00:46:06.968Z,98353.66
2023-01-29T00:48:34.312Z,98360.09
2023-01-29T00:51:02.064Z,98355.19
2023-01-29T00:53:29.222Z,98361.50
2023-01-29T00:55:55.941Z,98353.44
2023-01-29T00:58:22.478Z,98354.06
2023-01-29T01:00:49.330Z,98345.03
2023-01-29T01:03:16.213Z,98354.47
2023-01-29T01:05:42.951Z,98336.22
2023-01-29T01:08:29.184Z,98348.00
2023-01-29T01:11:05.109Z,98331.50
2023-01-29T01:13:33.213Z,98343.09
2023-01-29T01:16:00.264Z,98317.78
2023-01-29T01:18:31.654Z,98337.19
2023-01-29T01:20:58.590Z,98332.09
2023-01-29T01:23:25.230Z,98322.28
2023-01-29T01:25:51.595Z,98314.06
2023-01-29T01:28:18.004Z,98311.13
2023-01-29T01:30:44.613Z,98305.66
2023-01-29T01:33:11.000Z,98303.47
2023-01-29T01:35:38.639Z,98302.91
2023-01-29T01:38:05.006Z,98290.72
2023-01-29T01:40:31.574Z,98291.69
2023-01-29T01:43:00.743Z,98307.00
2023-01-29T01:45:31.735Z,98285.63
2023-01-29T01:48:21.883Z,98286.81
2023-01-29T01:50:53.818Z,98281.53
2023-01-29T01:53:27.369Z,98285.84
2023-01-29T01:56:01.341Z,98286.06
2023-01-29T01:58:33.343Z,98270.38
2023-01-29T02:01:00.168Z,98277.59
2023-01-29T02:03:47.227Z,98286.81
2023-01-29T02:06:31.919Z,98280.75
2023-01-29T02:09:23.760Z,98279.97
2023-01-29T02:11:50.926Z,98287.38
2023-01-29T02:14:17.300Z,98268.78
2023-01-29T02:16:43.660Z,98273.09
2023-01-29T02:19:24.402Z,98282.69
2023-01-29T02:22:07.831Z,98291.50
2023-01-29T02:24:34.246Z,98294.47
2023-01-29T02:27:15.306Z,98293.50
2023-01-29T02:29:58.057Z,98312.31
2023-01-29T02:32:42.111Z,98315.41
2023-01-29T02:35:46.399Z,98321.88
2023-01-29T02:38:34.555Z,98321.09
2023-01-29T02:41:25.603Z,98335.59
2023-01-29T02:43:59.416Z,98335.00
2023-01-29T02:46:35.486Z,98335.53
2023-01-29T02:49:10.107Z,98315.59
2023-01-29T02:51:44.694Z,98315.56
2023-01-29T02:54:22.851Z,98321.44
2023-01-29T02:56:58.712Z,98307.69
2023-01-29T02:59:36.474Z,98296.94
2023-01-29T03:02:10.294Z,98304.00
2023-01-29T03:04:45.638Z,98305.94
2023-01-29T03:07:41.126Z,98303.63
2023-01-29T03:10:19.136Z,98292.81
2023-01-29T03:12:51.977Z,98306.53
2023-01-29T03:15:25.186Z,98298.47
2023-01-29T03:18:01.526Z,98300.81
2023-01-29T03:20:39.918Z,98291.19
2023-01-29T03:23:14.519Z,98307.50
2023-01-29T03:26:02.384Z,98304.34
2023-01-29T03:28:48.694Z,98294.09
2023-01-29T03:31:36.521Z,98295.50
2023-01-29T03:34:24.004Z,98313.13
2023-01-29T03:37:02.205Z,98307.44
2023-01-29T03:39:29.629Z,98306.50
2023-01-29T03:42:04.428Z,98297.09
2023-01-29T03:45:00.365Z,98294.16
2023-01-29T03:47:54.998Z,98300.78
2023-01-29T03:50:48.129Z,98309.78
2023-01-29T03:53:26.113Z,98303.88
2023-01-29T03:56:20.830Z,98323.81
2023-01-29T03:59:00.793Z,98319.75
2023-01-29T04:01:48.495Z,98310.31
2023-01-29T04:04:22.461Z,98301.31
2023-01-29T04:06:53.029Z,98304.84
2023-01-29T04:09:32.231Z,98298.38
2023-01-29T04:12:10.984Z,98302.09
2023-01-29T04:14:38.391Z,98292.47
2023-01-29T04:17:12.441Z,98288.97
2023-01-29T04:19:39.278Z,98289.53
2023-01-29T04:22:25.379Z,98293.41
2023-01-29T04:24:51.873Z,98299.31
2023-01-29T04:27:40.002Z,98306.34
2023-01-29T04:30:30.807Z,98295.00
2023-01-29T04:33:17.371Z,98308.34
2023-01-29T04:36:00.077Z,98298.94
2023-01-29T04:38:51.519Z,98308.94
2023-01-29T04:41:25.801Z,98314.66
2023-01-29T04:44:01.555Z,98300.97
2023-01-29T04:46:33.474Z,98282.53
2023-01-29T04:49:18.366Z,98298.28
2023-01-29T04:51:56.649Z,98292.97
2023-01-29T04:54:23.343Z,98302.53
2023-01-29T04:57:06.781Z,98294.91
2023-01-29T04:59:41.978Z,98299.19
2023-01-29T05:02:11.701Z,98301.72
2023-01-29T05:04:41.149Z,98302.91
2023-01-29T05:07:13.725Z,98295.28
2023-01-29T05:09:43.951Z,98293.94
2023-01-29T05:12:14.093Z,98292.34
2023-01-29T05:14:44.456Z,98263.75
2023-01-29T05:17:16.309Z,98259.44
2023-01-29T05:19:42.852Z,98257.47
2023-01-29T05:22:12.926Z,98257.25
2023-01-29T05:24:39.266Z,98245.84
2023-01-29T05:27:24.307Z,98263.78
2023-01-29T05:29:50.655Z,98264.41
2023-01-29T05:32:17.131Z,98264.41
2023-01-29T05:34:43.478Z,98266.13
2023-01-29T05:37:10.478Z,98282.59
2023-01-29T05:39:36.847Z,98280.84
2023-01-29T05:42:03.356Z,98288.69
2023-01-29T05:44:29.711Z,98284.53
2023-01-29T05:46:56.092Z,98279.03
2023-01-29T05:49:22.661Z,98278.44
2023-01-29T05:51:49.089Z,98288.41
2023-01-29T05:54:15.471Z,98286.75
2023-01-29T05:56:41.850Z,98298.28
2023-01-29T05:59:08.392Z,98301.00
2023-01-29T06:01:34.786Z,98308.88
2023-01-29T06:04:01.695Z,98308.88
2023-01-29T06:06:28.072Z,98306.13
2023-01-29T06:08:55.925Z,98289.31
2023-01-29T06:11:22.273Z,98279.56
2023-01-29T06:13:48.858Z,98279.34
2023-01-29T06:16:16.428Z,98274.81
2023-01-29T06:18:43.197Z,98268.88
2023-01-29T06:21:13.189Z,98263.81
2023-01-29T06:23:39.907Z,98265.97
2023-01-29T06:26:08.881Z,98242.00
2023-01-29T06:28:35.251Z,98266.81
2023-01-29T06:31:22.001Z,98262.44
2023-01-29T06:33:49.961Z,98273.59
2023-01-29T06:36:16.360Z,98270.47
2023-01-29T06:38:42.886Z,98258.13
2023-01-29T06:41:11.267Z,98257.34
2023-01-29T06:43:38.749Z,98260.09
2023-01-29T06:46:07.544Z,98254.47
2023-01-29T06:48:33.998Z,98272.94
2023-01-29T06:51:08.227Z,98259.78
2023-01-29T06:53:36.093Z,98268.44
2023-01-29T06:56:03.343Z,98270.66
2023-01-29T06:58:29.838Z,98269.50
2023-01-29T07:01:04.022Z,98267.72
2023-01-29T07:03:30.378Z,98272.25
2023-01-29T07:05:56.806Z,98240.47
2023-01-29T07:08:23.140Z,98263.63
2023-01-29T07:10:50.573Z,98280.75
2023-01-29T07:13:17.332Z,98279.69
2023-01-29T07:15:44.499Z,98304.16
2023-01-29T07:18:13.454Z,98315.34
2023-01-29T07:20:41.783Z,98319.41
2023-01-29T07:23:13.415Z,98320.16
2023-01-29T07:25:40.681Z,98324.72
2023-01-29T07:28:07.848Z,98316.69
2023-01-29T07:30:34.755Z,98286.50
2023-01-29T07:33:07.427Z,98288.69
2023-01-29T07:35:39.123Z,98284.53
2023-01-29T07:38:06.176Z,98304.72
2023-01-29T07:40:32.535Z,98284.13
2023-01-29T07:43:03.694Z,98283.75
2023-01-29T07:45:31.063Z,98282.00
2023-01-29T07:47:57.470Z,98288.53
2023-01-29T07:50:25.854Z,98281.06
2023-01-29T07:52:54.362Z,98269.94
2023-01-29T07:55:20.785Z,98274.97
2023-01-29T07:57:47.649Z,98282.28
2023-01-29T08:00:15.384Z,98272.63
2023-01-29T08:02:42.090Z,98289.06
2023-01-29T08:05:08.795Z,98272.63
2023-01-29T08:07:35.131Z,98279.09
2023-01-29T08:10:01.519Z,98296.44
2023-01-29T08:12:27.933Z,98288.38
2023-01-29T08:14:54.279Z,98299.41
2023-01-29T08:17:20.711Z,98316.06
2023-01-29T08:19:47.069Z,98326.00
2023-01-29T08:22:15.219Z,98310.53
2023-01-29T08:24:53.572Z,98315.63
2023-01-29T08:27:26.340Z,98301.75
2023-01-29T08:29:52.700Z,98302.69
2023-01-29T08:32:19.092Z,98315.88
2023-01-29T08:34:45.443Z,98308.44
2023-01-29T08:37:11.834Z,98312.59
2023-01-29T08:39:38.179Z,98306.53
2023-01-29T08:42:04.559Z,98294.94
2023-01-29T08:44:30.916Z,98307.13
2023-01-29T08:46:57.277Z,98310.22
2023-01-29T08:49:23.834Z,98309.78
2023-01-29T08:51:51.486Z,98292.56
2023-01-29T08:54:17.904Z,98316.69
2023-01-29T08:56:44.278Z,98313.94
2023-01-29T08:59:10.984Z,98328.81
2023-01-29T09:01:37.354Z,98321.72
2023-01-29T09:04:03.711Z,98313.56
2023-01-29T09:06:30.153Z,98307.50
2023-01-29T09:08:56.723Z,98320.59
2023-01-29T09:11:23.145Z,98324.16
2023-01-29T09:13:49.520Z,98315.47
2023-01-29T09:16:15.967Z,98313.75
2023-01-29T09:18:42.348Z,98309.84
2023-01-29T09:21:08.782Z,98306.91
2023-01-29T09:23:35.178Z,98311.41
2023-01-29T09:26:01.615Z,98332.97
2023-01-29T09:28:28.362Z,98330.91
2023-01-29T09:30:54.860Z,98323.94
2023-01-29T09:33:21.320Z,98320.00
2023-01-29T09:35:47.680Z,98319.06
2023-01-29T09:38:14.587Z,98325.94
2023-01-29T09:41:13.106Z,98352.16
2023-01-29T09:43:45.091Z,98348.44
2023-01-29T09:46:23.194Z,98343.75
2023-01-29T09:49:14.676Z,98337.84
2023-01-29T09:51:44.936Z,98344.94
2023-01-29T09:54:23.120Z,98353.91
2023-01-29T09:56:53.184Z,98345.13
2023-01-29T09:59:23.166Z,98335.72
2023-01-29T10:01:56.320Z,98332.00
2023-01-29T10:04:52.722Z,98342.59
2023-01-29T10:07:37.958Z,98351.03
2023-01-29T10:10:12.478Z,98354.16
2023-01-29T10:12:58.469Z,98346.16
2023-01-29T10:15:38.834Z,98331.06
2023-01-29T10:18:34.989Z,98327.53
2023-01-29T10:21:08.469Z,98317.00
2023-01-29T10:23:40.077Z,98307.38
2023-01-29T10:26:12.156Z,98292.66
2023-01-29T10:28:45.985Z,98294.22
2023-01-29T10:31:24.414Z,98304.81
2023-01-29T10:34:02.153Z,98287.50
2023-01-29T10:36:50.257Z,98289.72
2023-01-29T10:39:21.869Z,98280.72
2023-01-29T10:42:05.809Z,98267.44
2023-01-29T10:44:54.273Z,98249.41
2023-01-29T10:47:28.627Z,98257.81
2023-01-29T10:50:16.324Z,98253.13
2023-01-29T10:53:01.419Z,98240.97
2023-01-29T10:55:36.715Z,98244.50
2023-01-29T10:58:30.097Z,98245.25
2023-01-29T11:00:56.581Z,98236.84
2023-01-29T11:03:28.854Z,98227.03
2023-01-29T11:06:17.599Z,98231.94
2023-01-29T11:09:14.299Z,98211.56
2023-01-29T11:11:52.701Z,98196.06
2023-01-29T11:14:24.535Z,98206.44
2023-01-29T11:16:51.186Z,98208.16
2023-01-29T11:19:17.659Z,98210.88
2023-01-29T11:21:58.542Z,98222.84
2023-01-29T11:24:25.737Z,98217.75
2023-01-29T11:26:55.437Z,98218.38
2023-01-29T11:29:33.931Z,98224.81
2023-01-29T11:32:03.753Z,98206.22
2023-01-29T11:34:33.491Z,98214.00
2023-01-29T11:37:16.826Z,98205.22
2023-01-29T11:39:47.076Z,98211.28
2023-01-29T11:42:22.106Z,98187.25
2023-01-29T11:44:49.040Z,98194.78
2023-01-29T11:47:26.013Z,98169.19
2023-01-29T11:49:57.893Z,98178.88
2023-01-29T11:52:27.633Z,98163.06
2023-01-29T11:55:05.324Z,98170.50
2023-01-29T11:57:38.761Z,98166.69
2023-01-29T12:00:17.936Z,98155.13
2023-01-29T12:02:54.198Z,98139.69
2023-01-29T12:05:25.987Z,98136.84
2023-01-29T12:07:55.954Z,98145.41
2023-01-29T12:10:40.922Z,98144.81
2023-01-29T12:13:09.969Z,98142.84
2023-01-29T12:15:41.252Z,98126.13
2023-01-29T12:18:29.880Z,98130.34
2023-01-29T12:21:03.105Z,98127.41
2023-01-29T12:23:49.925Z,98120.59
2023-01-29T12:26:24.147Z,98119.22
2023-01-29T12:29:09.213Z,98119.13
2023-01-29T12:31:44.072Z,98111.22
2023-01-29T12:34:19.698Z,98098.44
2023-01-29T12:37:12.218Z,98094.28
2023-01-29T12:39:38.656Z,98093.56
2023-01-29T12:42:18.907Z,98085.78
2023-01-29T12:45:08.624Z,98078.09
2023-01-29T12:47:48.876Z,98079.53
2023-01-29T12:50:22.460Z,98075.03
2023-01-29T12:52:52.718Z,98065.13
2023-01-29T12:55:37.949Z,98065.00
2023-01-29T12:58:29.857Z,98054.22
2023-01-29T13:01:03.135Z,98059.03
2023-01-29T13:03:37.188Z,98054.78
2023-01-29T13:06:10.153Z,98057.19
2023-01-29T13:08:51.405Z,98050.03
2023-01-29T13:11:26.037Z,98054.63
2023-01-29T13:14:04.051Z,98060.38
2023-01-29T13:16:37.486Z,98047.47
2023-01-29T13:19:12.407Z,98056.06
2023-01-29T13:21:42.172Z,98041.38
2023-01-29T13:24:16.204Z,98035.63
2023-01-29T13:26:47.006Z,98039.16
2023-01-29T13:29:23.463Z,98034.69
2023-01-29T13:31:52.943Z,98027.94
2023-01-29T13:34:29.401Z,98037.28
2023-01-29T13:36:59.466Z,98032.97
2023-01-29T13:39:34.003Z,98025.59
2023-01-29T13:42:02.754Z,98018.19
2023-01-29T13:44:39.233Z,98016.16
2023-01-29T13:47:11.608Z,98014.16
2023-01-29T13:49:46.293Z,98021.81
2023-01-29T13:52:17.296Z,98008.41
2023-01-29T13:54:52.945Z,98027.16
2023-01-29T13:57:48.783Z,98013.56
2023-01-29T14:00:21.342Z,98022.09
2023-01-29T14:02:56.712Z,98024.72
2023-01-29T14:05:42.496Z,97994.66
2023-01-29T14:08:08.766Z,98017.19
2023-01-29T14:10:37.339Z,98008.88
2023-01-29T14:13:03.630Z,98023.25
2023-01-29T14:15:35.181Z,98009.91
2023-01-29T14:18:22.023Z,98010.19
2023-01-29T14:20:48.305Z,98025.03
2023-01-29T14:23:41.138Z,98022.38
2023-01-29T14:26:34.269Z,98024.66
2023-01-29T14:29:12.952Z,98015.03
2023-01-29T14:31:53.812Z,97994.22
2023-01-29T14:34:33.751Z,97998.56
2023-01-29T14:37:43.473Z,98004.22
2023-01-29T14:40:19.028Z,97996.50
2023-01-29T14:43:00.513Z,98002.69
2023-01-29T14:45:29.171Z,97993.25
2023-01-29T14:48:18.577Z,97989.34
2023-01-29T14:50:50.749Z,97969.41
2023-01-29T14:53:22.971Z,97964.50
2023-01-29T14:56:09.973Z,97973.81
2023-01-29T14:58:43.718Z,97973.28
2023-01-29T15:01:30.671Z,97982.59
2023-01-29T15:04:04.602Z,97982.59
2023-01-29T15:06:43.216Z,97972.50
2023-01-29T15:09:39.060Z,97981.25
2023-01-29T15:12:43.657Z,97970.75
2023-01-29T15:15:25.334Z,97967.41
2023-01-29T15:18:07.990Z,97948.31
2023-01-29T15:20:40.188Z,97953.22
2023-01-29T15:23:43.333Z,97955.53
2023-01-29T15:26:17.372Z,97948.13
2023-01-29T15:28:47.233Z,97938.22
2023-01-29T15:31:18.426Z,97944.66
2023-01-29T15:33:46.921Z,97939.56
2023-01-29T15:36:20.727Z,97938.50
2023-01-29T15:38:47.148Z,97948.28
2023-01-29T15:41:19.610Z,97934.84
2023-01-29T15:43:48.550Z,97939.72
2023-01-29T15:46:27.005Z,97928.44
2023-01-29T15:48:55.849Z,97922.63
2023-01-29T15:51:25.253Z,97925.72
2023-01-29T15:54:06.644Z,97921.38
2023-01-29T15:56:51.666Z,97913.06
2023-01-29T15:59:22.507Z,97915.78
2023-01-29T16:01:48.958Z,97906.44
2023-01-29T16:04:22.352Z,97921.53
2023-01-29T16:06:52.676Z,97922.31
2023-01-29T16:09:23.561Z,97928.44
2023-01-29T16:11:51.297Z,97930.84
2023-01-29T16:14:21.764Z,97932.44
2023-01-29T16:16:48.605Z,97923.69
2023-01-29T16:19:24.396Z,97937.81
2023-01-29T16:21:57.011Z,97948.59
2023-01-29T16:24:24.934Z,97944.13
2023-01-29T16:26:56.616Z,97947.28
2023-01-29T16:29:29.772Z,97947.28
2023-01-29T16:32:01.677Z,97956.13
2023-01-29T16:34:34.020Z,97961.78
2023-01-29T16:37:02.987Z,97963.97
2023-01-29T16:39:33.622Z,97971.25
2023-01-29T16:42:12.311Z,97974.78
2023-01-29T16:44:46.254Z,97973.81
2023-01-29T16:47:15.598Z,97987.75
2023-01-29T16:49:49.688Z,97970.75
2023-01-29T16:52:24.895Z,97986.44
2023-01-29T16:54:52.089Z,97975.13
2023-01-29T16:57:25.178Z,97971.44
2023-01-29T16:59:59.084Z,97991.59
2023-01-29T17:02:36.227Z,97992.59
2023-01-29T17:05:06.420Z,97978.94
2023-01-29T17:07:34.662Z,97987.13
2023-01-29T17:10:04.212Z,97979.50
2023-01-29T17:12:32.087Z,97984.44
2023-01-29T17:15:02.216Z,97985.44
2023-01-29T17:17:34.282Z,97975.28
2023-01-29T17:20:15.733Z,97978.78
2023-01-29T17:22:44.544Z,98001.47
2023-01-29T17:25:15.261Z,98007.16
2023-01-29T17:27:44.200Z,97997.97
2023-01-29T17:30:18.113Z,97993.47
2023-01-29T17:32:47.474Z,97999.34
2023-01-29T17:35:15.944Z,98005.59
2023-01-29T17:37:43.438Z,98006.97
2023-01-29T17:40:21.192Z,97999.94
2023-01-29T17:42:47.582Z,97997.97
2023-01-29T17:45:14.063Z,97996.03
2023-01-29T17:47:40.725Z,97991.50
2023-01-29T17:50:28.932Z,97980.34
2023-01-29T17:52:55.337Z,97988.16
2023-01-29T17:55:21.873Z,97988.38
2023-01-29T17:57:48.332Z,97984.63
2023-01-29T18:00:18.479Z,97975.44
2023-01-29T18:02:45.007Z,97965.25
2023-01-29T18:05:12.708Z,97957.25
2023-01-29T18:07:40.923Z,97972.69
2023-01-29T18:10:12.798Z,97966.63
2023-01-29T18:12:39.144Z,97947.06
2023-01-29T18:15:05.976Z,97956.44
2023-01-29T18:17:32.545Z,97963.84
2023-01-29T18:19:59.882Z,97965.59
2023-01-29T18:22:26.314Z,97957.41
2023-01-29T18:24:52.681Z,97956.25
2023-01-29T18:27:19.409Z,97956.22
2023-01-29T18:29:45.817Z,97927.47
2023-01-29T18:32:12.158Z,97929.63
2023-01-29T18:34:38.584Z,97921.63
2023-01-29T18:37:04.970Z,97929.81
2023-01-29T18:39:31.399Z,97931.56
2023-01-29T18:41:57.808Z,97932.72
2023-01-29T18:44:24.160Z,97925.50
2023-01-29T18:46:50.499Z,97936.22
2023-01-29T18:49:16.923Z,97934.47
2023-01-29T18:51:43.280Z,97934.28
2023-01-29T18:54:12.808Z,97925.91
2023-01-29T18:56:39.166Z,97921.81
2023-01-29T18:59:25.517Z,97927.31
2023-01-29T19:01:51.941Z,97925.94
2023-01-29T19:04:18.418Z,97914.03
2023-01-29T19:06:44.754Z,97914.03
2023-01-29T19:09:11.169Z,97909.16
2023-01-29T19:11:37.540Z,97906.63
2023-01-29T19:14:03.903Z,97901.56
2023-01-29T19:16:30.248Z,97904.06
2023-01-29T19:18:56.661Z,97893.34
2023-01-29T19:21:23.874Z,97888.44
2023-01-29T19:23:50.302Z,97899.75
2023-01-29T19:26:16.852Z,97892.88
2023-01-29T19:28:43.227Z,97877.56
2023-01-29T19:31:09.724Z,97880.50
2023-01-29T19:33:36.193Z,97877.78
2023-01-29T19:36:02.800Z,97872.25
2023-01-29T19:38:33.208Z,97885.09
2023-01-29T19:41:00.280Z,97874.72
2023-01-29T19:43:30.805Z,97871.22
2023-01-29T19:45:59.355Z,97883.09
2023-01-29T19:48:26.558Z,97864.09
2023-01-29T19:50:57.852Z,97857.00
2023-01-29T19:53:24.758Z,97860.91
2023-01-29T19:56:02.807Z,97841.78
2023-01-29T19:58:29.641Z,97854.63
2023-01-29T20:01:04.442Z,97868.03
2023-01-29T20:03:31.133Z,97854.19
2023-01-29T20:06:06.656Z,97867.25
2023-01-29T20:08:34.084Z,97863.31
2023-01-29T20:11:01.003Z,97844.75
2023-01-29T20:13:27.764Z,97860.34
2023-01-29T20:15:55.787Z,97857.97
2023-01-29T20:18:22.230Z,97857.56
2023-01-29T20:20:50.549Z,97855.63
2023-01-29T20:23:35.215Z,97859.16
2023-01-29T20:26:03.730Z,97845.69
2023-01-29T20:28:30.179Z,97851.75
2023-01-29T20:30:58.089Z,97844.81
2023-01-29T20:33:25.250Z,97835.44
2023-01-29T20:35:56.829Z,97842.09
2023-01-29T20:38:25.483Z,97826.19
2023-01-29T20:40:51.870Z,97837.16
2023-01-29T20:43:18.225Z,97828.72
2023-01-29T20:45:44.603Z,97836.34
2023-01-29T20:48:11.026Z,97840.09
2023-01-29T20:50:37.423Z,97827.19
2023-01-29T20:53:03.926Z,97835.94
2023-01-29T20:55:31.476Z,97832.59
2023-01-29T20:58:05.863Z,97834.00
2023-01-29T21:00:33.359Z,97843.78
2023-01-29T21:02:59.770Z,97820.28
2023-01-29T21:05:26.132Z,97811.66
2023-01-29T21:07:52.478Z,97820.78
2023-01-29T21:10:19.223Z,97813.16
2023-01-29T21:12:45.780Z,97793.97
2023-01-29T21:15:12.186Z,97818.19
2023-01-29T21:17:38.572Z,97807.91
2023-01-29T21:20:07.292Z,97814.09
2023-01-29T21:22:33.861Z,97804.59
2023-01-29T21:25:00.208Z,97791.28
2023-01-29T21:27:26.654Z,97785.63
2023-01-29T21:29:53.013Z,97782.81
2023-01-29T21:32:19.420Z,97760.47
2023-01-29T21:34:45.785Z,97762.34
2023-01-29T21:37:12.243Z,97755.84
2023-01-29T21:39:38.598Z,97766.94
2023-01-29T21:42:23.719Z,97750.88
2023-01-29T21:44:50.052Z,97747.69
2023-01-29T21:47:16.426Z,97742.44
2023-01-29T21:49:44.228Z,97747.56
2023-01-29T21:52:12.598Z,97735.09
2023-01-29T21:54:40.032Z,97740.88
2023-01-29T21:57:11.582Z,97734.00
2023-01-29T21:59:38.103Z,97733.94
2023-01-29T22:02:04.608Z,97733.88
2023-01-29T22:04:31.022Z,97730.34
2023-01-29T22:06:57.453Z,97735.63
2023-01-29T22:09:24.007Z,97731.88
2023-01-29T22:11:50.488Z,97749.69
2023-01-29T22:14:19.612Z,97753.63
2023-01-29T22:16:46.102Z,97729.16
2023-01-29T22:19:13.586Z,97741.38
2023-01-29T22:21:40.000Z,97751.66
2023-01-29T22:24:06.766Z,97725.81
2023-01-29T22:26:33.655Z,97724.19
2023-01-29T22:29:00.053Z,97734.66
2023-01-29T22:31:26.541Z,97733.31
2023-01-29T22:33:53.419Z,97719.50
2023-01-29T22:36:19.948Z,97724.31
2023-01-29T22:38:46.624Z,97701.66
2023-01-29T22:41:13.576Z,97710.91
2023-01-29T22:43:40.979Z,97695.84
2023-01-29T22:46:11.619Z,97701.50
2023-01-29T22:48:38.120Z,97700.53
2023-01-29T22:51:10.817Z,97694.53
2023-01-29T22:53:39.076Z,97686.66
2023-01-29T22:56:06.380Z,97674.56
2023-01-29T22:58:33.164Z,97669.66
2023-01-29T23:00:59.905Z,97680.34
2023-01-29T23:03:26.307Z,97673.72
2023-01-29T23:05:52.770Z,97671.41
2023-01-29T23:08:19.137Z,97656.28
2023-01-29T23:10:45.731Z,97667.16
2023-01-29T23:13:12.093Z,97676.19
2023-01-29T23:15:39.008Z,97673.66
2023-01-29T23:18:05.461Z,97666.31
2023-01-29T23:20:32.212Z,97668.88
2023-01-29T23:22:58.584Z,97663.19
2023-01-29T23:25:44.923Z,97664.53
2023-01-29T23:28:11.332Z,97684.78
2023-01-29T23:30:37.696Z,97692.06
2023-01-29T23:33:04.241Z,97682.41
2023-01-29T23:35:31.007Z,97687.22
2023-01-29T23:37:57.363Z,97691.44
2023-01-29T23:40:23.702Z,97673.16
2023-01-29T23:42:50.085Z,97686.47
2023-01-29T23:45:16.443Z,97672.56
2023-01-29T23:47:42.888Z,97667.69
2023-01-29T23:50:10.037Z,97664.47
2023-01-29T23:52:36.453Z,97674.47
2023-01-29T23:55:03.054Z,97662.16
2023-01-29T23:57:29.434Z,97658.34
2023-01-29T23:59:55.772Z,97673.22
